createdAt,value
2022-11-29T00:00:29.971Z,5.40
2022-11-29T00:03:57.989Z,5.37
2022-11-29T00:06:57.960Z,5.90
2022-11-29T00:10:09.961Z,12.10
2022-11-29T00:13:22.941Z,5.25
2022-11-29T00:16:38.074Z,7.07
2022-11-29T00:19:38.028Z,5.17
2022-11-29T00:23:02.058Z,5.63
2022-11-29T00:26:02.045Z,5.90
2022-11-29T00:29:27.996Z,6.60
2022-11-29T00:32:28.089Z,6.83
2022-11-29T00:35:40.124Z,6.00
2022-11-29T00:38:43.107Z,5.43
2022-11-29T00:42:10.123Z,5.17
2022-11-29T00:45:24.151Z,5.47
2022-11-29T00:48:51.090Z,9.87
2022-11-29T00:52:03.310Z,6.50
2022-11-29T00:55:19.117Z,7.07
2022-11-29T00:58:22.131Z,6.77
2022-11-29T01:01:48.203Z,8.23
2022-11-29T01:04:48.177Z,8.40
2022-11-29T01:08:00.140Z,6.93
2022-11-29T01:11:00.215Z,5.55
2022-11-29T01:14:24.233Z,7.30
2022-11-29T01:17:38.214Z,6.20
2022-11-29T01:20:53.143Z,8.27
2022-11-29T01:24:05.204Z,6.63
2022-11-29T01:27:17.211Z,8.07
2022-11-29T01:30:29.236Z,7.00
2022-11-29T01:33:55.226Z,6.27
2022-11-29T01:36:55.223Z,6.17
2022-11-29T01:40:13.244Z,7.30
2022-11-29T01:43:13.390Z,6.93
2022-11-29T01:46:25.364Z,6.53
2022-11-29T01:49:39.276Z,7.55
2022-11-29T01:53:04.371Z,6.20
2022-11-29T01:56:19.388Z,8.17
2022-11-29T01:59:43.339Z,5.43
2022-11-29T02:02:55.394Z,5.77
2022-11-29T02:06:21.346Z,6.03
2022-11-29T02:09:40.343Z,5.93
2022-11-29T02:13:05.399Z,7.20
2022-11-29T02:16:18.429Z,6.47
2022-11-29T02:19:44.339Z,9.00
2022-11-29T02:22:58.440Z,6.17
2022-11-29T02:26:24.473Z,7.20
2022-11-29T02:29:53.446Z,6.47
2022-11-29T02:33:23.376Z,6.23
2022-11-29T02:36:38.399Z,6.57
2022-11-29T02:40:21.455Z,5.77
2022-11-29T02:43:42.472Z,6.60
2022-11-29T02:47:09.441Z,6.45
2022-11-29T02:50:26.425Z,7.10
2022-11-29T02:53:53.545Z,6.37
2022-11-29T02:57:05.458Z,5.57
2022-11-29T03:00:29.539Z,7.70
2022-11-29T03:03:42.534Z,9.97
2022-11-29T03:07:08.495Z,7.67
2022-11-29T03:10:22.505Z,6.57
2022-11-29T03:13:47.518Z,7.80
2022-11-29T03:16:59.528Z,6.57
2022-11-29T03:20:33.594Z,7.90
2022-11-29T03:23:48.536Z,10.07
2022-11-29T03:27:14.613Z,6.57
2022-11-29T03:30:26.606Z,6.47
2022-11-29T03:33:52.619Z,7.80
2022-11-29T03:37:04.587Z,8.53
2022-11-29T03:40:28.682Z,9.87
2022-11-29T03:43:42.584Z,7.33
2022-11-29T03:47:07.646Z,7.90
2022-11-29T03:50:23.690Z,6.87
2022-11-29T03:53:47.672Z,8.45
2022-11-29T03:56:59.893Z,8.30
2022-11-29T04:00:26.693Z,7.27
2022-11-29T04:03:56.763Z,7.87
2022-11-29T04:07:10.760Z,7.95
2022-11-29T04:10:41.696Z,8.07
2022-11-29T04:13:57.731Z,7.47
2022-11-29T04:17:30.759Z,7.43
2022-11-29T04:20:51.720Z,7.03
2022-11-29T04:24:20.758Z,7.70
2022-11-29T04:27:41.816Z,7.17
2022-11-29T04:31:07.796Z,6.85
2022-11-29T04:34:34.737Z,6.80
2022-11-29T04:38:10.879Z,7.37
2022-11-29T04:41:34.752Z,7.47
2022-11-29T04:45:10.818Z,7.63
2022-11-29T04:48:27.888Z,7.67
2022-11-29T04:51:55.873Z,7.20
2022-11-29T04:55:07.885Z,7.55
2022-11-29T04:58:37.855Z,7.47
2022-11-29T05:01:52.902Z,7.57
2022-11-29T05:05:16.926Z,7.67
2022-11-29T05:08:34.873Z,7.65
2022-11-29T05:12:03.934Z,7.20
2022-11-29T05:15:19.872Z,7.20
2022-11-29T05:18:44.901Z,7.87
2022-11-29T05:21:58.928Z,8.10
2022-11-29T05:25:25.929Z,8.47
2022-11-29T05:28:39.987Z,7.03
2022-11-29T05:32:11.055Z,7.10
2022-11-29T05:35:29.013Z,6.67
2022-11-29T05:38:54.973Z,7.73
2022-11-29T05:42:20.032Z,7.33
2022-11-29T05:45:44.017Z,8.10
2022-11-29T05:48:55.996Z,7.97
2022-11-29T05:52:21.147Z,7.97
2022-11-29T05:55:35.085Z,8.20
2022-11-29T05:59:05.071Z,8.80
2022-11-29T06:02:18.108Z,7.60
2022-11-29T06:05:47.091Z,7.60
2022-11-29T06:08:59.088Z,8.07
2022-11-29T06:12:27.082Z,8.95
2022-11-29T06:15:45.227Z,7.60
2022-11-29T06:19:21.085Z,7.97
2022-11-29T06:22:37.188Z,7.63
2022-11-29T06:26:06.188Z,8.67
2022-11-29T06:29:20.115Z,8.27
2022-11-29T06:32:46.179Z,8.00
2022-11-29T06:36:02.208Z,7.93
2022-11-29T06:39:31.172Z,7.83
2022-11-29T06:42:31.176Z,9.23
2022-11-29T06:45:44.192Z,8.47
2022-11-29T06:49:01.936Z,7.97
2022-11-29T06:52:26.191Z,9.40
2022-11-29T06:55:40.282Z,8.00
2022-11-29T06:59:05.255Z,7.97
2022-11-29T07:02:17.314Z,7.90
2022-11-29T07:05:42.269Z,7.10
2022-11-29T07:08:46.322Z,8.93
2022-11-29T07:12:13.317Z,8.43
2022-11-29T07:15:14.271Z,9.13
2022-11-29T07:18:39.291Z,8.57
2022-11-29T07:21:51.362Z,8.27
2022-11-29T07:25:17.405Z,8.00
2022-11-29T07:28:34.357Z,7.73
2022-11-29T07:31:59.276Z,8.15
2022-11-29T07:35:12.362Z,7.70
2022-11-29T07:38:37.295Z,8.37
2022-11-29T07:41:49.375Z,8.47
2022-11-29T07:45:16.363Z,7.97
2022-11-29T07:48:28.353Z,7.33
2022-11-29T07:51:55.443Z,7.90
2022-11-29T07:55:07.374Z,8.10
2022-11-29T07:58:19.450Z,7.20
2022-11-29T08:01:32.475Z,7.77
2022-11-29T08:04:44.869Z,8.17
2022-11-29T08:07:56.512Z,6.80
2022-11-29T08:11:23.503Z,7.07
2022-11-29T08:14:23.464Z,7.07
2022-11-29T08:17:52.445Z,7.70
2022-11-29T08:21:04.464Z,7.77
2022-11-29T08:24:17.499Z,7.33
2022-11-29T08:27:29.565Z,7.43
2022-11-29T08:30:53.549Z,7.45
2022-11-29T08:34:07.520Z,7.43
2022-11-29T08:37:19.510Z,6.97
2022-11-29T08:40:20.536Z,7.47
2022-11-29T08:43:32.524Z,7.47
2022-11-29T08:46:46.631Z,7.13
2022-11-29T08:50:15.555Z,6.97
2022-11-29T08:53:21.138Z,7.47
2022-11-29T08:57:16.641Z,7.00
2022-11-29T08:59:36.585Z,6.83
2022-11-29T09:02:51.604Z,7.33
2022-11-29T09:06:10.512Z,7.67
2022-11-29T09:09:28.638Z,6.57
2022-11-29T09:12:28.682Z,8.23
2022-11-29T09:15:40.643Z,6.67
2022-11-29T09:18:42.574Z,7.57
2022-11-29T09:22:06.634Z,7.03
2022-11-29T09:25:06.798Z,7.20
2022-11-29T09:28:19.701Z,7.27
2022-11-29T09:31:31.767Z,7.07
2022-11-29T09:34:46.895Z,6.40
2022-11-29T09:38:00.838Z,7.40
2022-11-29T09:41:26.765Z,7.13
2022-11-29T09:44:39.731Z,7.67
2022-11-29T09:48:09.747Z,7.90
2022-11-29T09:51:22.820Z,7.27
2022-11-29T09:54:50.836Z,6.20
2022-11-29T09:58:02.776Z,6.90
2022-11-29T10:01:27.892Z,6.50
2022-11-29T10:04:52.753Z,7.80
2022-11-29T10:08:07.839Z,6.30
2022-11-29T10:11:40.827Z,7.57
2022-11-29T10:14:55.900Z,7.23
2022-11-29T10:18:19.838Z,6.77
2022-11-29T10:21:31.822Z,7.37
2022-11-29T10:24:55.919Z,7.57
2022-11-29T10:28:09.867Z,8.03
2022-11-29T10:31:37.921Z,7.20
2022-11-29T10:34:49.873Z,6.70
2022-11-29T10:38:30.339Z,7.20
2022-11-29T10:41:27.963Z,7.03
2022-11-29T10:44:53.981Z,7.00
2022-11-29T10:48:09.914Z,8.23
2022-11-29T10:51:36.030Z,7.40
2022-11-29T10:54:54.994Z,7.45
2022-11-29T10:58:27.632Z,7.10
2022-11-29T11:01:40.039Z,6.70
2022-11-29T11:05:06.959Z,6.23
2022-11-29T11:08:22.006Z,6.50
2022-11-29T11:11:49.972Z,7.20
2022-11-29T11:15:02.142Z,6.80
2022-11-29T11:18:28.076Z,6.30
2022-11-29T11:21:40.105Z,7.67
2022-11-29T11:25:04.088Z,7.03
2022-11-29T11:28:19.090Z,7.00
2022-11-29T11:31:51.110Z,6.85
2022-11-29T11:35:08.132Z,5.37
2022-11-29T11:38:34.144Z,6.00
2022-11-29T11:41:52.917Z,6.10
2022-11-29T11:45:05.192Z,6.32
2022-11-29T11:48:18.128Z,6.40
2022-11-29T11:51:47.154Z,5.87
2022-11-29T11:54:59.161Z,5.70
2022-11-29T11:58:27.128Z,6.20
2022-11-29T12:01:52.168Z,6.27
2022-11-29T12:05:16.205Z,6.20
2022-11-29T12:08:30.263Z,6.03
2022-11-29T12:11:55.172Z,6.07
2022-11-29T12:15:11.208Z,5.83
2022-11-29T12:18:35.253Z,5.93
2022-11-29T12:21:47.290Z,4.80
2022-11-29T12:25:14.311Z,5.27
2022-11-29T12:28:38.213Z,4.90
2022-11-29T12:32:05.264Z,5.47
2022-11-29T12:35:26.312Z,5.60
2022-11-29T12:38:59.268Z,4.53
2022-11-29T12:42:15.321Z,5.37
2022-11-29T12:45:50.334Z,4.30
2022-11-29T12:49:06.373Z,4.20
2022-11-29T12:52:30.347Z,4.37
2022-11-29T12:55:43.329Z,4.70
2022-11-29T12:59:14.390Z,4.60
2022-11-29T13:02:34.386Z,4.35
2022-11-29T13:06:06.406Z,4.10
2022-11-29T13:09:24.357Z,4.63
2022-11-29T13:12:49.416Z,5.03
2022-11-29T13:16:04.429Z,4.67
2022-11-29T13:19:29.361Z,4.10
2022-11-29T13:22:41.469Z,3.90
2022-11-29T13:26:06.422Z,5.10
2022-11-29T13:29:18.461Z,3.87
2022-11-29T13:32:47.506Z,4.85
2022-11-29T13:36:02.448Z,4.07
2022-11-29T13:39:28.509Z,4.55
2022-11-29T13:42:41.430Z,4.20
2022-11-29T13:46:05.571Z,4.33
2022-11-29T13:49:18.510Z,3.87
2022-11-29T13:52:46.537Z,4.07
2022-11-29T13:55:58.523Z,4.53
2022-11-29T13:59:22.505Z,4.33
2022-11-29T14:02:46.603Z,4.63
2022-11-29T14:06:12.576Z,4.47
2022-11-29T14:09:30.564Z,4.10
2022-11-29T14:12:59.618Z,4.63
2022-11-29T14:16:11.619Z,4.63
2022-11-29T14:19:48.643Z,5.00
2022-11-29T14:23:02.535Z,3.80
2022-11-29T14:26:44.653Z,4.07
2022-11-29T14:30:02.636Z,4.87
2022-11-29T14:33:27.661Z,4.70
2022-11-29T14:36:46.639Z,4.40
2022-11-29T14:40:16.655Z,4.10
2022-11-29T14:43:28.740Z,3.77
2022-11-29T14:46:52.757Z,4.43
2022-11-29T14:50:04.714Z,4.20
2022-11-29T14:53:28.742Z,4.07
2022-11-29T14:56:47.735Z,4.40
2022-11-29T15:00:14.752Z,3.97
2022-11-29T15:03:26.859Z,4.90
2022-11-29T15:06:53.171Z,4.57
2022-11-29T15:10:04.723Z,4.63
2022-11-29T15:13:33.791Z,4.57
2022-11-29T15:16:54.804Z,4.85
2022-11-29T15:20:21.789Z,4.43
2022-11-29T15:23:34.811Z,4.30
2022-11-29T15:26:46.873Z,4.50
2022-11-29T15:29:46.862Z,4.30
2022-11-29T15:33:11.800Z,4.63
2022-11-29T15:36:27.868Z,4.10
2022-11-29T15:39:52.846Z,4.75
2022-11-29T15:43:05.883Z,3.70
2022-11-29T15:46:17.927Z,4.17
2022-11-29T15:49:43.861Z,3.80
2022-11-29T15:53:07.862Z,4.10
2022-11-29T15:56:19.872Z,3.70
2022-11-29T15:59:44.855Z,4.40
2022-11-29T16:02:56.871Z,3.77
2022-11-29T16:06:24.073Z,4.03
2022-11-29T16:09:35.978Z,5.37
2022-11-29T16:12:59.896Z,4.23
2022-11-29T16:16:00.032Z,4.47
2022-11-29T16:19:33.003Z,4.20
2022-11-29T16:22:50.068Z,5.27
2022-11-29T16:26:15.220Z,4.63
2022-11-29T16:29:27.050Z,4.60
2022-11-29T16:32:53.048Z,4.83
2022-11-29T16:35:53.065Z,5.10
2022-11-29T16:39:19.048Z,5.20
2022-11-29T16:42:32.061Z,4.90
2022-11-29T16:45:56.112Z,5.13
2022-11-29T16:49:11.087Z,5.73
2022-11-29T16:52:48.838Z,5.67
2022-11-29T16:56:01.115Z,5.80
2022-11-29T16:59:17.351Z,5.10
2022-11-29T17:02:28.153Z,5.67
2022-11-29T17:05:52.119Z,5.90
2022-11-29T17:08:52.159Z,5.93
2022-11-29T17:12:19.135Z,5.77
2022-11-29T17:15:20.180Z,5.63
2022-11-29T17:18:32.239Z,5.90
2022-11-29T17:21:44.159Z,5.37
2022-11-29T17:24:59.188Z,6.03
2022-11-29T17:28:13.214Z,5.77
2022-11-29T17:31:37.171Z,6.27
2022-11-29T17:34:50.047Z,6.30
2022-11-29T17:38:02.187Z,6.10
2022-11-29T17:41:02.204Z,6.40
2022-11-29T17:44:29.240Z,6.93
2022-11-29T17:47:29.270Z,7.63
2022-11-29T17:50:41.290Z,6.57
2022-11-29T17:53:41.295Z,6.53
2022-11-29T17:56:56.239Z,5.95
2022-11-29T18:00:09.261Z,6.17
2022-11-29T18:03:22.299Z,6.70
2022-11-29T18:06:37.297Z,7.00
2022-11-29T18:09:49.346Z,6.20
2022-11-29T18:12:49.310Z,6.83
2022-11-29T18:16:15.371Z,6.43
2022-11-29T18:19:30.347Z,7.00
2022-11-29T18:22:42.331Z,6.10
2022-11-29T18:25:42.345Z,6.53
2022-11-29T18:29:06.410Z,7.03
2022-11-29T18:32:20.387Z,7.03
2022-11-29T18:35:32.417Z,6.30
2022-11-29T18:38:32.488Z,6.00
2022-11-29T18:41:56.340Z,6.37
2022-11-29T18:44:58.881Z,6.27
2022-11-29T18:48:21.408Z,6.73
2022-11-29T18:51:33.435Z,6.17
2022-11-29T18:54:48.719Z,6.10
2022-11-29T18:57:48.422Z,6.47
2022-11-29T19:01:00.501Z,6.27
2022-11-29T19:04:14.557Z,6.83
2022-11-29T19:07:30.596Z,5.63
2022-11-29T19:10:30.562Z,6.03
2022-11-29T19:13:42.537Z,5.30
2022-11-29T19:16:54.496Z,5.00
2022-11-29T19:20:20.548Z,5.67
2022-11-29T19:23:20.538Z,6.40
2022-11-29T19:26:47.575Z,6.50
2022-11-29T19:29:47.834Z,5.60
2022-11-29T19:32:59.529Z,6.10
2022-11-29T19:36:12.571Z,6.47
2022-11-29T19:39:36.573Z,6.03
2022-11-29T19:42:39.564Z,6.80
2022-11-29T19:45:52.624Z,5.80
2022-11-29T19:49:04.654Z,6.07
2022-11-29T19:52:31.602Z,5.93
2022-11-29T19:55:31.636Z,6.27
2022-11-29T19:58:43.607Z,6.80
2022-11-29T20:01:55.692Z,6.30
2022-11-29T20:05:07.725Z,6.67
2022-11-29T20:08:21.598Z,7.03
2022-11-29T20:11:44.657Z,6.87
2022-11-29T20:14:47.650Z,7.43
2022-11-29T20:18:00.717Z,6.80
2022-11-29T20:21:00.673Z,6.55
2022-11-29T20:24:25.706Z,7.20
2022-11-29T20:27:25.705Z,5.93
2022-11-29T20:30:37.731Z,7.03
2022-11-29T20:33:49.744Z,7.33
2022-11-29T20:37:35.799Z,7.53
2022-11-29T20:40:49.718Z,7.80
2022-11-29T20:44:13.815Z,6.50
2022-11-29T20:47:14.783Z,7.30
2022-11-29T20:50:41.865Z,7.47
2022-11-29T20:53:56.768Z,7.73
2022-11-29T20:57:22.766Z,6.70
2022-11-29T21:00:35.887Z,8.40
2022-11-29T21:03:48.928Z,7.50
2022-11-29T21:07:01.834Z,7.53
2022-11-29T21:10:26.911Z,8.13
2022-11-29T21:13:40.863Z,8.07
2022-11-29T21:16:53.926Z,8.53
2022-11-29T21:19:54.854Z,8.93
2022-11-29T21:23:22.863Z,9.57
2022-11-29T21:26:42.003Z,7.90
2022-11-29T21:30:04.987Z,8.43
2022-11-29T21:33:05.960Z,8.33
2022-11-29T21:36:29.931Z,8.17
2022-11-29T21:39:44.973Z,8.57
2022-11-29T21:42:57.007Z,8.60
2022-11-29T21:46:11.980Z,8.23
2022-11-29T21:49:25.009Z,8.40
2022-11-29T21:52:37.006Z,9.07
2022-11-29T21:55:52.021Z,8.53
2022-11-29T21:59:03.993Z,8.97
2022-11-29T22:02:29.110Z,8.47
2022-11-29T22:05:40.979Z,8.80
2022-11-29T22:08:41.073Z,8.37
2022-11-29T22:12:32.439Z,7.87
2022-11-29T22:15:11.049Z,8.00
2022-11-29T22:18:37.063Z,9.67
2022-11-29T22:21:37.199Z,9.50
2022-11-29T22:25:01.063Z,9.60
2022-11-29T22:28:04.170Z,8.57
2022-11-29T22:31:29.106Z,9.70
2022-11-29T22:34:57.149Z,8.73
2022-11-29T22:38:10.131Z,8.33
2022-11-29T22:41:25.173Z,9.17
2022-11-29T22:44:49.324Z,8.80
2022-11-29T22:47:49.135Z,8.90
2022-11-29T22:51:15.202Z,9.03
2022-11-29T22:54:28.196Z,9.07
2022-11-29T22:57:40.177Z,8.13
2022-11-29T23:00:43.302Z,9.17
2022-11-29T23:04:07.321Z,8.97
2022-11-29T23:07:20.355Z,8.63
2022-11-29T23:10:32.264Z,7.15
2022-11-29T23:13:32.384Z,8.35
2022-11-29T23:16:56.308Z,8.27
2022-11-29T23:19:56.237Z,9.20
2022-11-29T23:23:22.293Z,8.70
2022-11-29T23:26:34.308Z,8.23
2022-11-29T23:29:46.329Z,8.63
2022-11-29T23:32:49.356Z,8.53
2022-11-29T23:36:14.312Z,8.33
2022-11-29T23:39:28.365Z,8.40
2022-11-29T23:42:43.590Z,8.07
2022-11-29T23:45:40.311Z,8.83
2022-11-29T23:49:04.306Z,9.63
2022-11-29T23:52:04.396Z,8.60
2022-11-29T23:55:30.331Z,7.90
2022-11-29T23:58:33.355Z,8.20
